createdAt,value
2022-11-21T00:00:53.616Z,34.43
2022-11-21T00:03:20.669Z,29.23
2022-11-21T00:05:48.963Z,15.00
2022-11-21T00:08:20.743Z,12.50
2022-11-21T00:10:48.267Z,18.70
2022-11-21T00:13:20.326Z,25.93
2022-11-21T00:15:48.150Z,10.57
2022-11-21T00:18:15.089Z,13.57
2022-11-21T00:20:42.314Z,20.53
2022-11-21T00:23:09.975Z,19.57
2022-11-21T00:25:37.544Z,15.70
2022-11-21T00:28:04.960Z,19.63
2022-11-21T00:30:31.819Z,9.87
2022-11-21T00:32:59.475Z,18.37
2022-11-21T00:35:26.287Z,12.13
2022-11-21T00:37:53.077Z,4.43
2022-11-21T00:40:19.848Z,10.90
2022-11-21T00:42:46.515Z,7.80
2022-11-21T00:45:13.322Z,4.30
2022-11-21T00:47:39.992Z,13.40
2022-11-21T00:50:07.184Z,14.67
2022-11-21T00:52:33.848Z,13.70
2022-11-21T00:55:00.624Z,7.40
2022-11-21T00:57:27.426Z,13.03
2022-11-21T00:59:54.235Z,10.20
2022-11-21T01:02:20.953Z,8.00
2022-11-21T01:04:47.613Z,17.10
2022-11-21T01:07:15.128Z,12.83
2022-11-21T01:09:42.010Z,10.70
2022-11-21T01:12:09.008Z,13.50
2022-11-21T01:14:35.728Z,7.90
2022-11-21T01:17:02.436Z,4.00
2022-11-21T01:19:29.149Z,4.30
2022-11-21T01:21:55.849Z,7.03
2022-11-21T01:24:22.561Z,14.10
2022-11-21T01:26:51.024Z,8.63
2022-11-21T01:29:17.791Z,9.70
2022-11-21T01:31:44.632Z,20.37
2022-11-21T01:34:11.733Z,9.40
2022-11-21T01:36:38.394Z,9.20
2022-11-21T01:39:06.994Z,12.17
2022-11-21T01:41:41.088Z,21.70
2022-11-21T01:44:23.062Z,30.67
2022-11-21T01:46:51.278Z,32.33
2022-11-21T01:49:22.227Z,43.73
2022-11-21T01:51:55.096Z,36.20
2022-11-21T01:54:43.392Z,38.37
2022-11-21T01:57:26.875Z,37.90
2022-11-21T02:00:21.676Z,46.00
2022-11-21T02:02:53.836Z,42.60
2022-11-21T02:05:25.362Z,37.83
2022-11-21T02:07:56.916Z,32.93
2022-11-21T02:10:24.031Z,33.87
2022-11-21T02:12:52.892Z,38.20
2022-11-21T02:15:23.175Z,41.70
2022-11-21T02:17:50.175Z,42.63
2022-11-21T02:20:19.357Z,41.47
2022-11-21T02:23:08.468Z,60.23
2022-11-21T02:25:37.131Z,60.30
2022-11-21T02:28:07.108Z,55.90
2022-11-21T02:30:38.746Z,71.80
2022-11-21T02:33:06.258Z,60.53
2022-11-21T02:35:33.989Z,53.73
2022-11-21T02:38:18.658Z,64.20
2022-11-21T02:40:58.520Z,50.40
2022-11-21T02:43:30.834Z,50.57
2022-11-21T02:45:59.111Z,58.27
2022-11-21T02:48:25.880Z,60.03
2022-11-21T02:50:52.694Z,46.33
2022-11-21T02:53:20.013Z,55.07
2022-11-21T02:55:47.005Z,70.63
2022-11-21T02:58:14.495Z,56.10
2022-11-21T03:00:42.743Z,63.50
2022-11-21T03:03:09.845Z,55.63
2022-11-21T03:05:38.045Z,54.13
2022-11-21T03:08:05.494Z,49.60
2022-11-21T03:10:32.465Z,54.03
2022-11-21T03:13:02.451Z,49.93
2022-11-21T03:15:31.852Z,49.53
2022-11-21T03:18:01.149Z,51.90
2022-11-21T03:20:28.161Z,54.73
2022-11-21T03:22:54.944Z,48.03
2022-11-21T03:25:21.681Z,50.60
2022-11-21T03:27:53.418Z,53.30
2022-11-21T03:30:24.834Z,52.13
2022-11-21T03:32:51.659Z,43.77
2022-11-21T03:35:18.416Z,63.30
2022-11-21T03:37:45.140Z,55.40
2022-11-21T03:40:12.365Z,66.73
2022-11-21T03:42:39.221Z,54.10
2022-11-21T03:45:06.505Z,63.97
2022-11-21T03:47:33.366Z,51.70
2022-11-21T03:50:00.144Z,67.30
2022-11-21T03:52:26.955Z,61.47
2022-11-21T03:54:53.713Z,69.97
2022-11-21T03:57:20.442Z,56.40
2022-11-21T03:59:47.175Z,63.83
2022-11-21T04:02:13.946Z,64.57
2022-11-21T04:04:40.673Z,55.47
2022-11-21T04:07:07.487Z,55.73
2022-11-21T04:09:34.558Z,72.30
2022-11-21T04:12:06.383Z,55.57
2022-11-21T04:14:34.369Z,59.50
2022-11-21T04:17:01.127Z,66.93
2022-11-21T04:19:27.875Z,55.40
2022-11-21T04:21:54.618Z,54.43
2022-11-21T04:24:21.303Z,60.23
2022-11-21T04:26:48.051Z,68.63
2022-11-21T04:29:14.768Z,81.80
2022-11-21T04:31:41.463Z,58.13
2022-11-21T04:34:08.151Z,67.47
2022-11-21T04:36:34.901Z,63.70
2022-11-21T04:39:01.638Z,78.83
2022-11-21T04:41:28.330Z,67.80
2022-11-21T04:43:55.151Z,95.30
2022-11-21T04:46:21.851Z,87.17
2022-11-21T04:48:48.575Z,102.30
2022-11-21T04:51:15.273Z,100.47
2022-11-21T04:53:43.265Z,88.53
2022-11-21T04:56:10.364Z,88.67
2022-11-21T04:58:37.572Z,108.07
2022-11-21T05:01:09.036Z,106.63
2022-11-21T05:03:36.850Z,81.47
2022-11-21T05:06:03.687Z,97.53
2022-11-21T05:08:30.427Z,116.23
2022-11-21T05:11:15.874Z,83.40
2022-11-21T05:13:42.637Z,94.50
2022-11-21T05:16:09.491Z,90.83
2022-11-21T05:18:36.307Z,94.20
2022-11-21T05:21:03.484Z,98.07
2022-11-21T05:23:30.238Z,89.00
2022-11-21T05:25:56.973Z,107.37
2022-11-21T05:28:23.762Z,103.23
2022-11-21T05:30:50.486Z,124.23
2022-11-21T05:33:19.061Z,94.00
2022-11-21T05:35:45.927Z,91.03
2022-11-21T05:38:12.916Z,94.40
2022-11-21T05:40:39.759Z,82.33
2022-11-21T05:43:25.111Z,96.20
2022-11-21T05:45:52.307Z,123.57
2022-11-21T05:48:19.048Z,102.30
2022-11-21T05:50:49.620Z,82.37
2022-11-21T05:53:16.724Z,97.40
2022-11-21T05:55:43.835Z,74.23
2022-11-21T05:58:11.035Z,71.50
2022-11-21T06:00:38.436Z,69.83
2022-11-21T06:03:24.923Z,71.50
2022-11-21T06:05:51.723Z,72.67
2022-11-21T06:08:18.678Z,63.60
2022-11-21T06:10:45.421Z,66.73
2022-11-21T06:13:24.065Z,63.70
2022-11-21T06:15:53.475Z,56.40
2022-11-21T06:18:21.676Z,58.50
2022-11-21T06:20:48.560Z,44.70
2022-11-21T06:23:15.336Z,48.60
2022-11-21T06:25:43.632Z,39.23
2022-11-21T06:28:11.608Z,49.20
2022-11-21T06:30:38.737Z,34.80
2022-11-21T06:33:06.919Z,39.20
2022-11-21T06:35:37.286Z,49.77
2022-11-21T06:38:04.242Z,23.43
2022-11-21T06:40:30.933Z,30.00
2022-11-21T06:42:57.634Z,23.83
2022-11-21T06:45:24.355Z,38.57
2022-11-21T06:47:51.124Z,19.90
2022-11-21T06:50:17.994Z,27.37
2022-11-21T06:52:44.751Z,27.87
2022-11-21T06:55:11.658Z,27.83
2022-11-21T06:57:38.406Z,26.20
2022-11-21T07:00:05.780Z,19.77
2022-11-21T07:02:32.821Z,23.33
2022-11-21T07:04:59.523Z,18.03
2022-11-21T07:07:26.280Z,24.47
2022-11-21T07:09:53.062Z,18.30
2022-11-21T07:12:38.279Z,23.37
2022-11-21T07:15:05.652Z,22.07
2022-11-21T07:17:32.319Z,22.03
2022-11-21T07:19:59.028Z,22.73
2022-11-21T07:22:25.704Z,20.93
2022-11-21T07:24:52.407Z,19.23
2022-11-21T07:27:19.166Z,28.10
2022-11-21T07:29:45.887Z,23.93
2022-11-21T07:32:12.661Z,13.87
2022-11-21T07:34:39.444Z,20.83
2022-11-21T07:37:06.283Z,17.97
2022-11-21T07:39:32.999Z,10.77
2022-11-21T07:41:59.704Z,14.93
2022-11-21T07:44:26.482Z,12.43
2022-11-21T07:46:56.570Z,16.77
2022-11-21T07:49:23.370Z,44.23
2022-11-21T07:51:50.343Z,14.87
2022-11-21T07:54:17.081Z,22.30
2022-11-21T07:59:09.221Z,18.77
2022-11-21T08:01:36.581Z,11.00
2022-11-21T08:04:05.286Z,16.20
2022-11-21T08:06:32.027Z,14.60
2022-11-21T08:09:00.991Z,15.90
2022-11-21T08:11:28.055Z,15.90
2022-11-21T08:13:54.867Z,18.23
2022-11-21T08:16:22.831Z,10.00
2022-11-21T08:18:51.223Z,14.50
2022-11-21T08:21:20.040Z,13.53
2022-11-21T08:23:47.171Z,19.00
2022-11-21T08:26:13.895Z,10.30
2022-11-21T08:28:40.591Z,24.20
2022-11-21T08:31:07.320Z,13.10
2022-11-21T08:33:34.051Z,18.07
2022-11-21T08:36:05.429Z,13.87
2022-11-21T08:38:32.484Z,12.33
2022-11-21T08:41:18.016Z,17.73
2022-11-21T08:43:45.065Z,18.03
2022-11-21T08:46:11.776Z,15.33
2022-11-21T08:48:38.507Z,17.57
2022-11-21T08:51:05.208Z,18.03
2022-11-21T08:53:32.037Z,13.47
2022-11-21T08:56:03.756Z,17.37
2022-11-21T08:58:31.195Z,12.50
2022-11-21T09:01:00.366Z,22.97
2022-11-21T09:03:31.026Z,13.00
2022-11-21T09:05:59.163Z,15.70
2022-11-21T09:08:26.268Z,14.33
2022-11-21T09:10:53.165Z,11.73
2022-11-21T09:13:20.006Z,13.33
2022-11-21T09:16:05.595Z,10.80
2022-11-21T09:18:32.545Z,12.37
2022-11-21T09:20:59.421Z,11.57
2022-11-21T09:23:26.530Z,16.60
2022-11-21T09:25:53.295Z,13.10
2022-11-21T09:28:20.059Z,17.27
2022-11-21T09:30:46.751Z,30.63
2022-11-21T09:33:16.894Z,11.23
2022-11-21T09:35:44.121Z,15.70
2022-11-21T09:38:12.461Z,13.50
2022-11-21T09:40:44.720Z,28.27
2022-11-21T09:43:26.464Z,17.20
2022-11-21T09:46:05.972Z,25.87
2022-11-21T09:48:40.147Z,20.10
2022-11-21T09:51:13.538Z,20.13
2022-11-21T09:53:51.630Z,22.30
2022-11-21T09:56:23.344Z,12.63
2022-11-21T09:59:08.377Z,17.23
2022-11-21T10:01:36.341Z,14.53
2022-11-21T10:04:04.285Z,7.60
2022-11-21T10:06:37.542Z,10.50
2022-11-21T10:09:11.946Z,13.33
2022-11-21T10:12:14.156Z,17.40
2022-11-21T10:14:54.993Z,19.87
2022-11-21T10:17:38.966Z,45.77
2022-11-21T10:20:33.819Z,29.63
2022-11-21T10:23:24.955Z,10.23
2022-11-21T10:26:11.419Z,14.57
2022-11-21T10:28:52.208Z,11.03
2022-11-21T10:31:19.910Z,13.73
2022-11-21T10:33:47.510Z,12.70
2022-11-21T10:36:31.733Z,10.40
2022-11-21T10:39:05.671Z,9.43
2022-11-21T10:41:51.220Z,10.53
2022-11-21T10:44:54.686Z,9.77
2022-11-21T10:47:30.124Z,13.63
2022-11-21T10:50:07.242Z,6.87
2022-11-21T10:52:49.930Z,7.93
2022-11-21T10:55:18.335Z,20.37
2022-11-21T10:57:47.515Z,21.50
2022-11-21T11:00:14.846Z,12.20
2022-11-21T11:02:57.810Z,22.33
2022-11-21T11:05:25.739Z,11.33
2022-11-21T11:08:12.884Z,16.13
2022-11-21T11:10:40.671Z,5.67
2022-11-21T11:13:50.654Z,5.90
2022-11-21T11:16:21.583Z,6.07
2022-11-21T11:18:59.482Z,4.30
2022-11-21T11:21:47.706Z,8.63
2022-11-21T11:24:17.473Z,10.87
2022-11-21T11:26:48.602Z,10.53
2022-11-21T11:29:30.915Z,10.17
2022-11-21T11:32:30.155Z,5.83
2022-11-21T11:35:01.326Z,14.63
2022-11-21T11:37:41.064Z,16.20
2022-11-21T11:40:23.492Z,5.60
2022-11-21T11:43:21.200Z,4.87
2022-11-21T11:46:13.855Z,9.40
2022-11-21T11:49:03.726Z,2.90
2022-11-21T11:51:47.862Z,3.53
2022-11-21T11:54:46.924Z,4.30
2022-11-21T11:57:14.397Z,2.57
2022-11-21T11:59:47.755Z,3.90
2022-11-21T12:02:33.706Z,4.77
2022-11-21T12:05:09.712Z,5.53
2022-11-21T12:08:38.868Z,12.50
2022-11-21T12:10:36.791Z,2.87
2022-11-21T12:13:11.742Z,11.50
2022-11-21T12:15:51.041Z,5.77
2022-11-21T12:18:17.800Z,3.03
2022-11-21T12:21:02.985Z,5.07
2022-11-21T12:23:41.532Z,3.53
2022-11-21T12:26:14.623Z,6.20
2022-11-21T12:29:10.411Z,3.63
2022-11-21T12:31:49.102Z,8.03
2022-11-21T12:34:24.396Z,1.60
2022-11-21T12:37:06.283Z,86.47
2022-11-21T12:39:53.342Z,2.37
2022-11-21T12:42:45.013Z,3.17
2022-11-21T12:45:29.879Z,2.17
2022-11-21T12:48:47.762Z,3.53
2022-11-21T12:52:00.338Z,1.83
2022-11-21T12:54:35.821Z,11.90
2022-11-21T12:57:07.966Z,7.63
2022-11-21T12:59:57.524Z,2.70
2022-11-21T13:03:03.714Z,2.07
2022-11-21T13:05:35.090Z,4.17
2022-11-21T13:08:08.520Z,2.70
2022-11-21T13:10:36.643Z,3.87
2022-11-21T13:13:22.559Z,3.33
2022-11-21T13:16:02.009Z,6.97
2022-11-21T13:18:30.627Z,1.97
2022-11-21T13:20:57.330Z,10.20
2022-11-21T13:23:41.646Z,4.60
2022-11-21T13:26:26.493Z,2.30
2022-11-21T13:29:08.019Z,3.50
2022-11-21T13:31:35.374Z,4.73
2022-11-21T13:34:05.827Z,2.60
2022-11-21T13:36:32.538Z,5.17
2022-11-21T13:38:59.990Z,3.80
2022-11-21T13:41:54.298Z,3.97
2022-11-21T13:44:33.332Z,9.57
2022-11-21T13:47:03.124Z,5.97
2022-11-21T13:49:58.139Z,4.40
2022-11-21T13:52:47.154Z,5.57
2022-11-21T13:55:17.000Z,2.97
2022-11-21T13:58:01.833Z,8.60
2022-11-21T14:00:49.711Z,3.93
2022-11-21T14:03:28.510Z,4.90
2022-11-21T14:06:14.594Z,4.47
2022-11-21T14:08:41.349Z,2.50
2022-11-21T14:11:30.032Z,1.57
2022-11-21T14:13:56.845Z,2.70
2022-11-21T14:16:43.619Z,3.10
2022-11-21T14:19:17.722Z,2.00
2022-11-21T14:21:46.454Z,2.50
2022-11-21T14:24:20.176Z,2.57
2022-11-21T14:26:52.714Z,2.50
2022-11-21T14:29:27.564Z,1.40
2022-11-21T14:31:55.901Z,3.57
2022-11-21T14:34:28.873Z,1.50
2022-11-21T14:36:59.146Z,3.33
2022-11-21T14:39:37.704Z,3.80
2022-11-21T14:42:13.553Z,6.00
2022-11-21T14:44:40.321Z,12.13
2022-11-21T14:47:25.112Z,2.50
2022-11-21T14:49:55.053Z,4.87
2022-11-21T14:52:26.578Z,7.20
2022-11-21T14:57:49.464Z,3.27
2022-11-21T15:00:51.266Z,2.20
2022-11-21T15:03:20.921Z,2.53
2022-11-21T15:06:07.851Z,2.70
2022-11-21T15:16:41.231Z,7.33
2022-11-21T15:19:11.480Z,1.70
2022-11-21T15:21:46.531Z,13.10
2022-11-21T15:24:19.065Z,1.93
2022-11-21T15:26:47.351Z,2.33
2022-11-21T15:29:21.029Z,3.97
2022-11-21T15:32:06.473Z,1.57
2022-11-21T15:34:36.154Z,1.60
2022-11-21T15:37:24.058Z,3.20
2022-11-21T15:39:53.111Z,5.77
2022-11-21T15:42:34.729Z,1.97
2022-11-21T15:45:02.526Z,1.57
2022-11-21T15:47:29.352Z,1.73
2022-11-21T15:49:56.164Z,4.93
2022-11-21T15:52:23.226Z,1.97
2022-11-21T15:54:50.146Z,3.40
2022-11-21T15:59:45.518Z,3.93
2022-11-21T16:02:15.298Z,5.23
2022-11-21T16:04:42.397Z,7.93
2022-11-21T16:07:09.301Z,3.33
2022-11-21T16:09:37.402Z,5.37
2022-11-21T16:12:04.341Z,4.23
2022-11-21T16:14:31.042Z,5.10
2022-11-21T16:16:57.799Z,6.47
2022-11-21T16:19:24.549Z,3.43
2022-11-21T16:21:51.331Z,3.33
2022-11-21T16:24:18.131Z,1.83
2022-11-21T16:26:44.922Z,13.43
2022-11-21T16:29:11.735Z,5.37
2022-11-21T16:31:38.491Z,3.53
2022-11-21T16:34:05.277Z,4.73
2022-11-21T16:36:32.563Z,6.57
2022-11-21T16:39:07.661Z,9.33
2022-11-21T16:41:35.898Z,4.63
2022-11-21T16:44:02.693Z,5.03
2022-11-21T16:46:29.606Z,11.70
2022-11-21T16:49:02.021Z,4.07
2022-11-21T16:51:29.704Z,7.97
2022-11-21T16:53:59.687Z,9.13
2022-11-21T16:56:29.794Z,6.83
2022-11-21T16:58:56.492Z,6.27
2022-11-21T17:01:25.235Z,2.60
2022-11-21T17:03:53.347Z,4.13
2022-11-21T17:06:22.525Z,6.00
2022-11-21T17:08:49.563Z,13.93
2022-11-21T17:11:29.342Z,5.50
2022-11-21T17:13:59.623Z,4.87
2022-11-21T17:16:26.802Z,6.87
2022-11-21T17:18:55.534Z,7.73
2022-11-21T17:21:22.985Z,12.23
2022-11-21T17:23:50.578Z,5.93
2022-11-21T17:26:22.805Z,10.70
2022-11-21T17:28:58.280Z,4.53
2022-11-21T17:31:28.718Z,9.40
2022-11-21T17:34:00.871Z,7.37
2022-11-21T17:36:29.247Z,13.07
2022-11-21T17:38:56.033Z,9.83
2022-11-21T17:41:24.475Z,16.17
2022-11-21T17:43:55.660Z,17.47
2022-11-21T17:46:23.776Z,4.13
2022-11-21T17:48:55.305Z,7.03
2022-11-21T17:51:27.557Z,3.97
2022-11-21T17:53:54.493Z,5.70
2022-11-21T17:56:23.778Z,20.70
2022-11-21T17:58:51.592Z,14.80
2022-11-21T18:01:19.836Z,6.50
2022-11-21T18:03:54.581Z,5.80
2022-11-21T18:06:21.549Z,12.10
2022-11-21T18:08:49.029Z,13.40
2022-11-21T18:11:21.061Z,11.07
2022-11-21T18:13:48.946Z,15.63
2022-11-21T18:16:19.287Z,13.30
2022-11-21T18:18:46.096Z,8.70
2022-11-21T18:21:15.594Z,4.30
2022-11-21T18:23:44.093Z,8.00
2022-11-21T18:26:21.211Z,8.53
2022-11-21T18:29:13.592Z,13.23
2022-11-21T18:31:42.894Z,17.80
2022-11-21T18:34:10.353Z,40.37
2022-11-21T18:36:37.151Z,11.23
2022-11-21T18:39:08.792Z,6.27
2022-11-21T18:41:39.000Z,17.53
2022-11-21T18:44:06.885Z,9.23
2022-11-21T18:46:36.535Z,5.37
2022-11-21T18:49:07.031Z,8.03
2022-11-21T18:51:35.510Z,6.70
2022-11-21T18:54:07.063Z,6.40
2022-11-21T18:56:35.200Z,5.87
2022-11-21T18:59:03.386Z,9.77
2022-11-21T19:01:30.522Z,8.83
2022-11-21T19:03:57.383Z,4.43
2022-11-21T19:06:25.698Z,6.80
2022-11-21T19:08:54.300Z,4.23
2022-11-21T19:11:24.445Z,5.43
2022-11-21T19:13:52.721Z,22.13
2022-11-21T19:16:24.768Z,6.50
2022-11-21T19:21:41.689Z,6.60
2022-11-21T19:24:13.528Z,6.80
2022-11-21T19:26:40.514Z,12.07
2022-11-21T19:29:07.261Z,9.03
2022-11-21T19:31:36.696Z,8.53
2022-11-21T19:34:07.618Z,14.60
2022-11-21T19:36:34.440Z,13.17
2022-11-21T19:39:01.134Z,6.10
2022-11-21T19:41:27.890Z,10.33
2022-11-21T19:43:59.430Z,5.00
2022-11-21T19:46:34.478Z,6.03
2022-11-21T19:49:02.017Z,9.10
2022-11-21T19:51:36.465Z,8.47
2022-11-21T19:54:04.918Z,6.50
2022-11-21T19:56:31.703Z,10.07
2022-11-21T19:58:58.830Z,6.80
2022-11-21T20:01:30.632Z,4.37
2022-11-21T20:04:02.794Z,7.90
2022-11-21T20:06:46.030Z,14.97
2022-11-21T20:09:18.346Z,5.10
2022-11-21T20:11:47.189Z,5.50
2022-11-21T20:14:21.076Z,7.03
2022-11-21T20:16:49.339Z,7.10
2022-11-21T20:19:18.448Z,10.73
2022-11-21T20:21:45.893Z,10.00
2022-11-21T20:24:13.404Z,12.10
2022-11-21T20:26:40.949Z,9.50
2022-11-21T20:29:07.785Z,11.30
2022-11-21T20:31:37.225Z,12.47
2022-11-21T20:34:07.076Z,11.93
2022-11-21T20:36:36.708Z,15.03
2022-11-21T20:39:12.892Z,7.63
2022-11-21T20:41:39.614Z,14.03
2022-11-21T20:46:54.967Z,5.83
2022-11-21T20:49:21.734Z,13.63
2022-11-21T20:54:36.377Z,11.73
2022-11-21T20:57:03.103Z,10.53
2022-11-21T20:59:30.328Z,7.47
2022-11-21T21:01:57.355Z,13.00
2022-11-21T21:04:24.118Z,8.27
2022-11-21T21:06:50.809Z,11.40
2022-11-21T21:09:17.539Z,16.37
2022-11-21T21:11:52.064Z,11.23
2022-11-21T21:14:20.846Z,8.43
2022-11-21T21:16:47.586Z,12.93
2022-11-21T21:19:14.416Z,16.17
2022-11-21T21:21:41.769Z,9.50
2022-11-21T21:24:11.072Z,16.43
2022-11-21T21:26:42.878Z,14.07
2022-11-21T21:29:17.283Z,9.73
2022-11-21T21:31:50.389Z,11.37
2022-11-21T21:34:18.535Z,13.27
2022-11-21T21:36:45.306Z,10.07
2022-11-21T21:39:12.143Z,17.07
2022-11-21T21:41:40.323Z,8.30
2022-11-21T21:44:10.439Z,16.67
2022-11-21T21:46:37.181Z,17.40
2022-11-21T21:49:03.873Z,13.50
2022-11-21T21:51:32.080Z,18.77
2022-11-21T21:53:59.564Z,22.73
2022-11-21T21:56:28.413Z,9.57
2022-11-21T21:58:57.055Z,9.40
2022-11-21T22:01:32.033Z,18.27
2022-11-21T22:04:01.363Z,10.00
2022-11-21T22:06:29.155Z,17.00
2022-11-21T22:08:56.432Z,17.20
2022-11-21T22:11:25.786Z,11.73
2022-11-21T22:14:07.693Z,10.60
2022-11-21T22:16:34.626Z,13.00
2022-11-21T22:19:01.383Z,9.23
2022-11-21T22:21:33.570Z,15.83
2022-11-21T22:24:24.808Z,11.87
2022-11-21T22:26:52.283Z,18.07
2022-11-21T22:29:19.053Z,7.27
2022-11-21T22:31:45.786Z,14.43
2022-11-21T22:34:14.031Z,8.30
2022-11-21T22:36:41.570Z,15.93
2022-11-21T22:39:08.477Z,11.50
2022-11-21T22:41:35.302Z,18.77
2022-11-21T22:44:02.074Z,6.90
2022-11-21T22:46:30.062Z,6.63
2022-11-21T22:48:57.029Z,9.77
2022-11-21T22:51:26.383Z,4.43
2022-11-21T22:53:53.594Z,7.97
2022-11-21T22:56:22.837Z,12.90
2022-11-21T22:58:50.297Z,4.23
2022-11-21T23:01:22.129Z,8.07
2022-11-21T23:03:49.814Z,11.80
2022-11-21T23:06:23.579Z,5.03
2022-11-21T23:08:51.994Z,11.73
2022-11-21T23:11:27.991Z,2.73
2022-11-21T23:13:56.683Z,6.53
2022-11-21T23:16:23.881Z,4.50
2022-11-21T23:18:53.335Z,7.70
2022-11-21T23:21:22.079Z,7.33
2022-11-21T23:23:48.975Z,7.50
2022-11-21T23:26:15.758Z,10.50
2022-11-21T23:28:42.512Z,9.97
2022-11-21T23:31:10.288Z,5.97
2022-11-21T23:33:37.029Z,12.77
2022-11-21T23:36:04.563Z,9.63
2022-11-21T23:38:31.534Z,8.43
2022-11-21T23:40:58.262Z,5.60
2022-11-21T23:43:25.133Z,9.47
2022-11-21T23:45:53.228Z,10.80
2022-11-21T23:48:20.868Z,12.50
2022-11-21T23:50:50.403Z,3.83
2022-11-21T23:53:17.570Z,5.40
2022-11-21T23:55:44.713Z,11.43
2022-11-21T23:58:12.427Z,3.30
